createdAt,value
2018-06-09T08:59:34.227Z,27.37
2018-06-09T09:00:36.087Z,27.32
2018-06-09T09:01:37.946Z,27.39
2018-06-09T09:02:39.816Z,27.32
2018-06-09T09:03:41.629Z,27.36
2018-06-09T09:04:43.458Z,27.49
2018-06-09T09:05:45.329Z,27.62
2018-06-09T09:06:47.229Z,27.70
2018-06-09T09:07:49.143Z,27.85
2018-06-09T09:09:03.311Z,28.02
2018-06-09T09:10:05.213Z,28.14
2018-06-09T09:11:07.155Z,28.30
2018-06-09T09:12:09.029Z,28.51
2018-06-09T09:13:10.847Z,28.49
2018-06-09T09:14:12.653Z,28.62
2018-06-09T09:15:14.525Z,28.74
2018-06-09T09:16:16.407Z,28.81
2018-06-09T09:17:18.281Z,29.05
2018-06-09T09:18:32.431Z,29.30
2018-06-09T09:19:34.331Z,29.43
2018-06-09T09:20:36.228Z,29.58
2018-06-09T09:21:38.123Z,29.49
2018-06-09T09:22:39.937Z,29.63
2018-06-09T09:23:41.771Z,29.55
2018-06-09T09:24:43.679Z,29.51
2018-06-09T09:25:45.580Z,29.45
2018-06-09T09:26:47.477Z,29.37
2018-06-09T09:28:01.624Z,29.42
2018-06-09T09:29:03.521Z,29.41
2018-06-09T09:30:05.418Z,29.34
2018-06-09T09:31:07.293Z,29.28
2018-06-09T09:32:09.121Z,29.33
2018-06-09T09:33:10.924Z,29.45
2018-06-09T09:34:12.765Z,29.60
2018-06-09T09:35:14.600Z,29.70
2018-06-09T09:36:16.461Z,29.87
2018-06-09T09:37:30.626Z,29.92
2018-06-09T09:38:32.508Z,29.89
2018-06-09T09:39:34.401Z,29.85
2018-06-09T09:40:36.298Z,30.00
2018-06-09T09:41:38.116Z,30.02
2018-06-09T09:42:39.945Z,29.92
2018-06-09T09:43:41.822Z,29.97
2018-06-09T09:44:43.696Z,30.17
2018-06-09T09:45:45.572Z,30.34
2018-06-09T09:46:59.740Z,30.43
2018-06-09T09:48:01.615Z,30.46
2018-06-09T09:49:03.487Z,30.27
2018-06-09T09:50:05.394Z,30.10
2018-06-09T09:51:07.223Z,30.04
2018-06-09T09:52:09.037Z,29.86
2018-06-09T09:53:10.907Z,29.82
2018-06-09T09:54:12.800Z,29.79
2018-06-09T09:55:14.703Z,29.67
2018-06-09T09:56:28.876Z,29.61
2018-06-09T09:57:30.777Z,29.61
2018-06-09T09:58:32.759Z,29.53
2018-06-09T09:59:34.632Z,29.46
2018-06-09T10:00:36.465Z,29.39
2018-06-09T10:01:38.624Z,29.30
2018-06-09T10:02:40.507Z,29.30
2018-06-09T10:03:42.450Z,29.19
2018-06-09T10:04:44.309Z,29.16
2018-06-09T10:05:58.461Z,29.21
2018-06-09T10:07:00.354Z,29.14
2018-06-09T10:08:02.232Z,29.19
2018-06-09T10:09:04.662Z,29.21
2018-06-09T10:10:06.795Z,29.19
2018-06-09T10:11:08.637Z,29.24
2018-06-09T10:12:10.603Z,29.15
2018-06-09T10:13:12.572Z,29.16
2018-06-09T10:14:14.829Z,29.21
2018-06-09T10:15:28.967Z,29.43
2018-06-09T10:16:31.438Z,29.63
2018-06-09T10:17:33.301Z,29.60
2018-06-09T10:18:35.197Z,29.57
2018-06-09T10:19:37.033Z,29.55
2018-06-09T10:20:38.860Z,29.46
2018-06-09T10:21:40.731Z,29.45
2018-06-09T10:22:42.606Z,29.27
2018-06-09T10:23:44.505Z,29.19
2018-06-09T10:24:58.671Z,29.27
2018-06-09T10:26:00.563Z,29.19
2018-06-09T10:27:02.445Z,29.18
2018-06-09T10:28:04.340Z,29.08
2018-06-09T10:29:06.156Z,29.02
2018-06-09T10:30:08.018Z,29.02
2018-06-09T10:31:09.893Z,28.78
2018-06-09T10:32:12.296Z,28.85
2018-06-09T10:33:14.147Z,28.81
2018-06-09T10:34:28.306Z,29.00
2018-06-09T10:35:30.201Z,28.98
2018-06-09T10:36:32.100Z,28.98
2018-06-09T10:37:33.991Z,29.06
2018-06-09T10:38:35.832Z,28.90
2018-06-09T10:39:37.621Z,28.85
2018-06-09T10:40:39.517Z,28.86
2018-06-09T10:41:41.411Z,29.00
2018-06-09T10:42:43.357Z,29.04
2018-06-09T10:43:57.757Z,29.00
2018-06-09T10:44:59.782Z,29.08
2018-06-09T10:46:02.950Z,29.08
2018-06-09T10:47:04.885Z,29.24
2018-06-09T10:48:06.741Z,29.24
2018-06-09T10:49:08.637Z,29.45
2018-06-09T10:50:10.762Z,29.60
2018-06-09T10:51:12.646Z,29.60
2018-06-09T10:52:15.004Z,29.55
2018-06-09T10:53:29.299Z,29.58
2018-06-09T10:54:31.282Z,29.67
2018-06-09T10:55:33.225Z,29.80
2018-06-09T10:56:35.237Z,29.92
2018-06-09T10:57:37.253Z,30.05
2018-06-09T10:58:39.072Z,30.00
2018-06-09T10:59:41.158Z,30.05
2018-06-09T11:00:43.052Z,30.00
2018-06-09T11:01:45.356Z,29.98
2018-06-09T11:02:59.623Z,30.02
2018-06-09T11:04:01.782Z,30.04
2018-06-09T11:05:03.713Z,30.23
2018-06-09T11:06:05.749Z,30.26
2018-06-09T11:07:07.545Z,30.34
2018-06-09T11:08:09.555Z,30.43
2018-06-09T11:09:11.483Z,30.70
2018-06-09T11:10:14.092Z,30.77
2018-06-09T11:11:16.177Z,30.99
2018-06-09T11:12:31.066Z,30.97
2018-06-09T11:13:33.511Z,30.91
2018-06-09T11:14:35.914Z,30.89
2018-06-09T11:15:37.825Z,30.89
2018-06-09T11:16:39.827Z,30.82
2018-06-09T11:17:41.737Z,30.82
2018-06-09T11:18:43.684Z,30.88
2018-06-09T11:19:45.990Z,30.94
2018-06-09T11:20:47.979Z,31.04
2018-06-09T11:22:02.181Z,31.19
2018-06-09T11:23:04.238Z,31.26
2018-06-09T11:24:06.390Z,31.26
2018-06-09T11:25:08.266Z,31.17
2018-06-09T11:26:10.161Z,31.10
2018-06-09T11:27:12.224Z,31.02
2018-06-09T11:28:14.319Z,31.04
2018-06-09T11:29:16.280Z,31.12
2018-06-09T11:30:18.275Z,31.36
2018-06-09T11:31:32.675Z,31.75
2018-06-09T11:32:34.599Z,31.86
2018-06-09T11:33:36.528Z,32.07
2018-06-09T11:34:39.011Z,32.28
2018-06-09T11:35:41.287Z,32.51
2018-06-09T11:36:43.539Z,32.67
2018-06-09T11:37:45.518Z,32.74
2018-06-09T11:38:47.534Z,32.84
2018-06-09T11:39:49.712Z,32.97
2018-06-09T11:41:04.200Z,32.85
2018-06-09T11:42:06.119Z,32.72
2018-06-09T11:43:08.432Z,32.37
2018-06-09T11:44:10.373Z,32.18
2018-06-09T11:45:12.448Z,32.04
2018-06-09T11:46:14.540Z,32.00
2018-06-09T11:47:16.419Z,31.84
2018-06-09T11:48:18.493Z,31.91
2018-06-09T11:49:20.544Z,31.65
2018-06-09T11:50:35.059Z,31.68
2018-06-09T11:51:36.952Z,31.75
2018-06-09T11:52:38.914Z,31.75
2018-06-09T11:53:40.853Z,31.66
2018-06-09T11:54:43.086Z,31.53
2018-06-09T11:55:45.399Z,31.61
2018-06-09T11:56:47.279Z,31.62
2018-06-09T11:57:49.286Z,31.78
2018-06-09T11:58:51.600Z,31.73
2018-06-09T12:00:05.831Z,32.01
2018-06-09T12:01:07.822Z,32.10
2018-06-09T12:02:10.062Z,32.26
2018-06-09T12:03:11.938Z,32.38
2018-06-09T12:04:13.793Z,32.48
2018-06-09T12:05:15.628Z,32.62
2018-06-09T12:06:17.913Z,32.65
2018-06-09T12:07:19.780Z,32.77
2018-06-09T12:08:22.174Z,32.60
2018-06-09T12:09:36.409Z,32.77
2018-06-09T12:11:55.552Z,32.85
2018-06-09T12:12:57.542Z,32.92
2018-06-09T12:13:59.427Z,32.89
2018-06-09T12:15:01.332Z,32.92
2018-06-09T12:16:03.724Z,32.96
2018-06-09T12:17:06.021Z,33.09
2018-06-09T12:18:07.985Z,33.04
2018-06-09T12:19:23.574Z,33.11
2018-06-09T12:20:25.504Z,33.09
2018-06-09T12:21:27.680Z,33.21
2018-06-09T12:22:29.764Z,33.21
2018-06-09T12:23:31.853Z,33.51
2018-06-09T12:24:33.930Z,33.73
2018-06-09T12:25:35.865Z,33.91
2018-06-09T12:27:54.578Z,34.15
2018-06-09T12:29:08.974Z,34.42
2018-06-09T12:30:10.892Z,34.53
2018-06-09T12:31:13.281Z,34.70
2018-06-09T12:32:15.178Z,34.82
2018-06-09T12:33:17.020Z,34.99
2018-06-09T12:34:19.203Z,35.09
2018-06-09T12:35:21.152Z,35.23
2018-06-09T12:36:23.420Z,35.38
2018-06-09T12:37:25.416Z,35.40
2018-06-09T12:38:39.833Z,35.60
2018-06-09T12:39:41.751Z,35.68
2018-06-09T12:40:44.301Z,35.74
2018-06-09T12:41:46.295Z,35.78
2018-06-09T12:42:48.156Z,35.72
2018-06-09T12:43:50.219Z,35.68
2018-06-09T12:44:52.182Z,35.74
2018-06-09T12:45:54.034Z,35.65
2018-06-09T12:46:55.934Z,35.77
2018-06-09T12:48:10.084Z,35.81
2018-06-09T12:49:11.958Z,35.62
2018-06-09T12:50:13.831Z,35.02
2018-06-09T12:51:15.722Z,34.06
2018-06-09T12:52:17.541Z,33.06
2018-06-09T12:53:19.354Z,32.29
2018-06-09T12:54:21.246Z,31.63
2018-06-09T12:55:23.148Z,31.16
2018-06-09T12:56:25.041Z,30.83
2018-06-09T12:57:39.218Z,30.75
2018-06-09T12:58:41.109Z,30.61
2018-06-09T12:59:42.989Z,30.39
2018-06-09T13:00:44.887Z,30.23
2018-06-09T13:01:46.718Z,30.07
2018-06-09T13:02:48.540Z,30.16
2018-06-09T13:03:50.436Z,30.22
2018-06-09T13:04:52.336Z,30.15
2018-06-09T13:05:54.301Z,30.04
2018-06-09T13:07:08.448Z,29.83
2018-06-09T13:08:10.306Z,29.68
2018-06-09T13:09:12.185Z,29.46
2018-06-09T13:10:14.074Z,29.26
2018-06-09T13:11:15.889Z,29.26
2018-06-09T13:12:17.720Z,28.96
2018-06-09T13:13:19.602Z,28.86
2018-06-09T13:14:21.469Z,28.90
2018-06-09T13:15:23.365Z,28.85
2018-06-09T13:16:37.588Z,28.64
2018-06-09T13:17:39.474Z,28.68
2018-06-09T13:18:41.346Z,28.77
2018-06-09T13:19:43.242Z,28.90
2018-06-09T13:20:45.052Z,28.98
2018-06-09T13:21:46.867Z,29.39
2018-06-09T13:22:48.738Z,29.65
2018-06-09T13:23:50.621Z,29.74
2018-06-09T13:24:52.541Z,29.86
2018-06-09T13:26:06.663Z,29.90
2018-06-09T13:27:08.559Z,29.83
2018-06-09T13:28:10.450Z,29.90
2018-06-09T13:29:12.328Z,29.95
2018-06-09T13:30:14.268Z,29.92
2018-06-09T13:31:16.059Z,29.90
2018-06-09T13:32:17.935Z,29.92
2018-06-09T13:33:19.841Z,29.87
2018-06-09T13:34:21.779Z,29.90
2018-06-09T13:35:35.945Z,29.80
2018-06-09T13:36:37.866Z,29.74
2018-06-09T13:37:39.754Z,29.61
2018-06-09T13:38:41.643Z,29.30
2018-06-09T13:39:43.463Z,28.95
2018-06-09T13:40:45.358Z,28.39
2018-06-09T13:41:47.275Z,28.04
2018-06-09T13:42:49.191Z,27.67
2018-06-09T13:43:51.087Z,26.65
2018-06-09T13:45:05.258Z,25.25
2018-06-09T13:46:07.150Z,24.55
2018-06-09T13:47:09.097Z,24.13
2018-06-09T13:48:11.021Z,23.97
2018-06-09T13:49:12.890Z,24.02
2018-06-09T13:50:14.754Z,23.85
2018-06-09T13:51:16.648Z,23.70
2018-06-09T13:52:18.540Z,23.54
2018-06-09T13:53:20.420Z,23.40
2018-06-09T13:54:34.669Z,23.40
2018-06-09T13:55:36.516Z,23.58
2018-06-09T13:56:38.468Z,23.78
2018-06-09T13:57:40.429Z,24.12
2018-06-09T13:58:42.266Z,24.30
2018-06-09T13:59:44.130Z,24.55
2018-06-09T14:00:46.084Z,24.73
2018-06-09T14:01:48.009Z,24.96
2018-06-09T14:02:49.939Z,25.02
2018-06-09T14:04:04.114Z,25.10
2018-06-09T14:05:06.019Z,25.20
2018-06-09T14:06:07.936Z,25.18
2018-06-09T14:07:09.824Z,25.02
2018-06-09T14:08:11.696Z,24.95
2018-06-09T14:09:13.559Z,24.93
2018-06-09T14:10:15.434Z,24.95
2018-06-09T14:11:17.408Z,24.95
2018-06-09T14:12:19.320Z,24.98
2018-06-09T14:13:33.458Z,24.95
2018-06-09T14:14:35.333Z,24.93
2018-06-09T14:15:37.224Z,24.81
2018-06-09T14:16:39.108Z,24.78
2018-06-09T14:17:40.940Z,24.83
2018-06-09T14:18:42.773Z,24.81
2018-06-09T14:19:44.655Z,24.73
2018-06-09T14:20:46.518Z,24.80
2018-06-09T14:21:48.418Z,24.87
2018-06-09T14:23:02.603Z,24.80
2018-06-09T14:24:04.504Z,24.77
2018-06-09T14:25:06.393Z,24.69
2018-06-09T14:26:08.289Z,24.76
2018-06-09T14:27:10.126Z,24.57
2018-06-09T14:28:11.930Z,24.64
2018-06-09T14:29:13.806Z,24.69
2018-06-09T14:30:15.656Z,24.58
2018-06-09T14:31:17.463Z,24.60
2018-06-09T14:32:31.658Z,24.76
2018-06-09T14:33:33.537Z,24.73
2018-06-09T14:34:35.484Z,24.69
2018-06-09T14:35:37.372Z,24.71
2018-06-09T14:36:39.184Z,24.73
2018-06-09T14:37:41.038Z,24.68
2018-06-09T14:38:43.018Z,24.76
2018-06-09T14:39:44.858Z,24.71
2018-06-09T14:40:46.749Z,24.78
2018-06-09T14:42:00.913Z,24.73
2018-06-09T14:43:02.782Z,24.71
2018-06-09T14:44:04.675Z,24.68
2018-06-09T14:45:06.566Z,24.71
2018-06-09T14:46:08.411Z,24.57
2018-06-09T14:47:10.228Z,24.53
2018-06-09T14:48:12.097Z,24.55
2018-06-09T14:49:13.997Z,24.50
2018-06-09T14:50:15.889Z,24.32
2018-06-09T14:51:30.050Z,24.21
2018-06-09T14:52:31.941Z,24.21
2018-06-09T14:53:33.819Z,24.34
2018-06-09T14:54:35.715Z,24.35
2018-06-09T14:55:37.541Z,24.25
2018-06-09T14:56:39.341Z,24.37
2018-06-09T14:57:41.219Z,24.40
2018-06-09T14:58:43.108Z,24.43
2018-06-09T14:59:44.982Z,24.47
2018-06-09T15:00:59.125Z,24.49
2018-06-09T15:02:01.018Z,24.55
2018-06-09T15:03:02.891Z,24.60
2018-06-09T15:04:04.797Z,24.65
2018-06-09T15:05:06.621Z,24.64
2018-06-09T15:06:08.427Z,24.67
2018-06-09T15:07:10.293Z,24.50
2018-06-09T15:08:12.167Z,24.64
2018-06-09T15:09:14.037Z,24.77
2018-06-09T15:10:28.180Z,24.73
2018-06-09T15:11:30.135Z,24.77
2018-06-09T15:12:31.946Z,24.77
2018-06-09T15:13:33.838Z,24.71
2018-06-09T15:14:35.674Z,24.76
2018-06-09T15:15:37.524Z,24.76
2018-06-09T15:16:39.341Z,24.69
2018-06-09T15:17:41.249Z,24.67
2018-06-09T15:18:43.084Z,24.58
2018-06-09T15:19:57.236Z,24.45
2018-06-09T15:20:59.111Z,24.24
2018-06-09T15:22:00.978Z,24.03
2018-06-09T15:23:02.868Z,23.84
2018-06-09T15:24:04.700Z,23.73
2018-06-09T15:25:06.500Z,23.76
2018-06-09T15:26:08.371Z,23.78
2018-06-09T15:27:10.263Z,23.93
2018-06-09T15:28:12.191Z,24.03
2018-06-09T15:29:26.288Z,24.08
2018-06-09T15:30:28.168Z,23.97
2018-06-09T15:31:30.061Z,23.94
2018-06-09T15:32:31.949Z,23.94
2018-06-09T15:33:33.765Z,24.08
2018-06-09T15:34:35.593Z,24.09
2018-06-09T15:35:37.487Z,24.32
2018-06-09T15:36:39.373Z,24.35
2018-06-09T15:37:41.249Z,24.46
2018-06-09T15:38:55.416Z,24.55
2018-06-09T15:39:57.311Z,24.69
2018-06-09T15:40:59.207Z,24.68
2018-06-09T15:42:01.098Z,24.87
2018-06-09T15:43:02.929Z,24.87
2018-06-09T15:44:04.765Z,24.83
2018-06-09T15:45:06.653Z,24.91
2018-06-09T15:46:08.546Z,24.90
2018-06-09T15:47:10.418Z,24.87
2018-06-09T15:48:24.588Z,24.99
2018-06-09T15:49:26.499Z,24.95
2018-06-09T15:50:28.369Z,25.05
2018-06-09T15:51:30.253Z,25.09
2018-06-09T15:52:32.057Z,25.00
2018-06-09T15:53:33.875Z,25.14
2018-06-09T15:54:35.826Z,25.09
2018-06-09T15:55:37.633Z,25.10
2018-06-09T15:56:39.531Z,25.10
2018-06-09T15:57:53.691Z,25.08
2018-06-09T15:58:55.562Z,25.06
2018-06-09T15:59:57.435Z,25.02
2018-06-09T16:00:59.306Z,25.00
2018-06-09T16:02:01.107Z,25.06
2018-06-09T16:03:02.925Z,25.05
2018-06-09T16:04:04.794Z,25.10
2018-06-09T16:05:06.688Z,25.28
2018-06-09T16:06:08.555Z,25.38
2018-06-09T16:07:22.705Z,25.62
2018-06-09T16:08:24.599Z,25.69
2018-06-09T16:09:26.494Z,25.77
2018-06-09T16:10:28.386Z,25.82
2018-06-09T16:11:30.197Z,25.83
2018-06-09T16:12:32.028Z,25.83
2018-06-09T16:13:33.899Z,25.88
2018-06-09T16:14:35.795Z,25.90
2018-06-09T16:15:37.686Z,25.95
2018-06-09T16:16:51.826Z,25.92
2018-06-09T16:17:53.717Z,25.95
2018-06-09T16:18:55.650Z,25.91
2018-06-09T16:19:57.621Z,25.94
2018-06-09T16:20:59.464Z,25.92
2018-06-09T16:22:01.302Z,25.90
2018-06-09T16:23:03.192Z,25.94
2018-06-09T16:24:05.063Z,25.85
2018-06-09T16:25:06.957Z,25.85
2018-06-09T16:26:21.077Z,25.83
2018-06-09T16:27:22.952Z,25.90
2018-06-09T16:28:24.847Z,25.75
2018-06-09T16:29:26.757Z,25.57
2018-06-09T16:30:28.547Z,25.60
2018-06-09T16:31:30.351Z,25.43
2018-06-09T16:32:32.247Z,25.18
2018-06-09T16:33:34.141Z,25.08
2018-06-09T16:34:36.015Z,24.78
2018-06-09T16:35:50.195Z,24.43
2018-06-09T16:36:52.115Z,24.08
2018-06-09T16:37:54.015Z,23.95
2018-06-09T16:38:55.893Z,23.79
2018-06-09T16:39:57.734Z,23.61
2018-06-09T16:40:59.630Z,23.53
2018-06-09T16:42:01.517Z,23.40
2018-06-09T16:43:03.394Z,23.31
2018-06-09T16:44:05.284Z,23.22
2018-06-09T16:45:19.420Z,23.19
2018-06-09T16:46:21.295Z,23.20
2018-06-09T16:47:23.164Z,23.22
2018-06-09T16:48:25.058Z,23.33
2018-06-09T16:49:26.885Z,23.48
2018-06-09T16:50:28.694Z,23.63
2018-06-09T16:51:30.560Z,23.63
2018-06-09T16:52:32.438Z,23.61
2018-06-09T16:53:34.325Z,23.51
2018-06-09T16:54:48.518Z,23.55
2018-06-09T16:55:50.412Z,23.60
2018-06-09T16:56:52.292Z,23.66
